Airfield :
LOGIN :

Register | Disclaimer

   EN    FR    IT 

 










Legend :    VFR   Marginal VFR   IFR   Intensive IFR   Very Intensive IFR
Visi :
Ceiling :
>= 8 km
>= 3000ft
5 to 8 km
1000 to 3000 ft
1500m to 5 km
500 to 1000 ft
800 to 1500m
200 to 500 ft
< 800m
< 200 ft
Symbols :   Thunderstorms  Fog  Heavy snow  Heavy precipitations  Wind > 20 kt
SIGMETs :     Misc.  Thunderstorms  Icing  Turbulence  Mountain Waves  Volcanic Ashes






- Airport Elevation : 231 ft
- IATA code : SZE


EGSY - Sheffield City Heliport

CURRENT METAR :
  • 281320Z 26017KT 9999 FEW025CB SCT030 11/08 Q1001

EXPIRED METARs :
  • 281220Z 28023KT 7000 SHRA SCT028CB BKN040 09/07 Q1001
  • 281150Z 23020KT 9999 BKN025CB 13/08 Q1000
  • 281120Z 22012G24KT 9999 SCT025CB BKN035 12/08 Q1000
  • 281050Z 23012KT 9999 SCT025CB BKN031 10/07 Q1000

TAF TAF EGSY
Valid from the 28 at 12:00 until the 28 at 17:00 UTC


281058Z 2812/2817 24015KT 9999 SCT025
TEMPO 2812/2817 27018G28KT 7000 SHRA
PROB30
TEMPO 2812/2817 3000 +SHRA TSRA BKN012CB



MET'MAP, your aeronautical weather chart ! - Copyright ORBIFLY December 2007 - Disclaimer

ORBIFLY MET'MAP TEAM :

Programming & Development : Alexandra Zaïnal
Concept & original design : Baudouin d'Aumeries
Assistance for programming : Marc-Olivier Méhu
Technical & hardware support : Manuel Goepfert

Contact : metmap@orbifly.com




SOURCES & CREDITS :

   NOAA